createdAt,value
2016-06-16T00:00:19.709Z,68.87
2016-06-16T00:01:19.900Z,68.54
2016-06-16T00:02:20.107Z,68.44
2016-06-16T00:03:19.922Z,68.35
2016-06-16T00:04:20.112Z,68.58
2016-06-16T00:05:19.708Z,68.58
2016-06-16T00:06:19.900Z,68.44
2016-06-16T00:07:20.106Z,68.44
2016-06-16T00:08:19.937Z,68.35
2016-06-16T00:09:19.893Z,68.44
2016-06-16T00:10:20.115Z,68.44
2016-06-16T00:11:19.899Z,68.74
2016-06-16T00:12:19.683Z,68.77
2016-06-16T00:13:19.687Z,68.54
2016-06-16T00:14:19.893Z,68.84
2016-06-16T00:15:19.755Z,68.54
2016-06-16T00:16:19.884Z,68.64
2016-06-16T00:17:20.090Z,68.54
2016-06-16T00:18:19.889Z,68.54
2016-06-16T00:19:19.674Z,68.64
2016-06-16T00:20:20.083Z,68.74
2016-06-16T00:21:20.086Z,68.54
2016-06-16T00:22:20.089Z,68.64
2016-06-16T00:23:19.874Z,68.54
2016-06-16T00:24:19.877Z,68.74
2016-06-16T00:25:19.677Z,68.54
2016-06-16T00:26:19.883Z,68.84
2016-06-16T00:27:20.073Z,68.54
2016-06-16T00:28:19.873Z,68.84
2016-06-16T00:29:19.876Z,68.64
2016-06-16T00:30:19.677Z,68.44
2016-06-16T00:31:20.071Z,68.84
2016-06-16T00:32:19.667Z,68.84
2016-06-16T00:33:20.076Z,68.84
2016-06-16T00:34:19.861Z,68.93
2016-06-16T00:35:19.864Z,68.74
2016-06-16T00:36:19.882Z,68.74
2016-06-16T00:37:19.854Z,68.84
2016-06-16T00:38:19.654Z,68.93
2016-06-16T00:39:19.657Z,68.93
2016-06-16T00:40:19.863Z,68.64
2016-06-16T00:41:20.258Z,68.64
2016-06-16T00:42:19.869Z,68.84
2016-06-16T00:43:19.857Z,68.74
2016-06-16T00:44:19.861Z,68.93
2016-06-16T00:45:19.848Z,68.74
2016-06-16T00:46:20.053Z,68.84
2016-06-16T00:47:20.057Z,68.74
2016-06-16T00:48:19.654Z,68.84
2016-06-16T00:49:19.641Z,68.54
2016-06-16T00:50:19.847Z,68.84
2016-06-16T00:51:19.850Z,68.54
2016-06-16T00:52:19.838Z,68.74
2016-06-16T00:53:19.841Z,68.74
2016-06-16T00:54:19.828Z,68.93
2016-06-16T00:55:20.051Z,68.54
2016-06-16T00:56:20.131Z,68.74
2016-06-16T00:57:19.854Z,68.54
2016-06-16T00:58:19.841Z,68.84
2016-06-16T00:59:20.032Z,68.54
2016-06-16T01:00:20.034Z,68.74
2016-06-16T01:01:20.022Z,68.74
2016-06-16T01:02:19.837Z,68.74
2016-06-16T01:03:19.637Z,68.54
2016-06-16T01:04:20.031Z,68.74
2016-06-16T01:05:19.831Z,68.54
2016-06-16T01:06:19.818Z,68.84
2016-06-16T01:07:20.024Z,68.54
2016-06-16T01:08:19.622Z,68.64
2016-06-16T01:09:19.827Z,68.74
2016-06-16T01:10:19.675Z,68.84
2016-06-16T01:11:19.662Z,68.84
2016-06-16T01:12:19.915Z,68.74
2016-06-16T01:13:19.824Z,68.74
2016-06-16T01:14:19.812Z,68.54
2016-06-16T01:15:19.815Z,68.74
2016-06-16T01:16:19.802Z,68.54
2016-06-16T01:17:19.805Z,68.54
2016-06-16T01:18:19.605Z,68.84
2016-06-16T01:19:19.811Z,68.74
2016-06-16T01:20:19.800Z,68.54
2016-06-16T01:21:20.005Z,68.54
2016-06-16T01:22:19.805Z,68.74
2016-06-16T01:23:19.792Z,68.54
2016-06-16T01:24:19.592Z,68.74
2016-06-16T01:25:20.002Z,68.74
2016-06-16T01:26:20.146Z,68.64
2016-06-16T01:27:20.008Z,68.64
2016-06-16T01:28:19.995Z,68.64
2016-06-16T01:29:19.999Z,68.84
2016-06-16T01:30:19.798Z,68.84
2016-06-16T01:31:19.989Z,68.74
2016-06-16T01:32:19.992Z,68.74
2016-06-16T01:33:19.792Z,68.74
2016-06-16T01:34:19.982Z,68.74
2016-06-16T01:35:19.782Z,68.74
2016-06-16T01:36:19.988Z,68.74
2016-06-16T01:37:19.569Z,68.8
2016-06-16T01:38:19.980Z,68.74
2016-06-16T01:39:19.982Z,68.74
2016-06-16T01:40:19.782Z,69.22
2016-06-16T01:41:19.832Z,68.93
2016-06-16T01:42:19.570Z,68.74
2016-06-16T01:43:19.792Z,69.12
2016-06-16T01:44:19.763Z,68.84
2016-06-16T01:45:19.782Z,68.84
2016-06-16T01:46:19.972Z,68.93
2016-06-16T01:47:19.569Z,69.22
2016-06-16T01:48:19.760Z,68.93
2016-06-16T01:49:19.967Z,68.99
2016-06-16T01:50:19.969Z,69.02
2016-06-16T01:51:19.753Z,68.99
2016-06-16T01:52:19.757Z,69.09
2016-06-16T01:53:19.776Z,69.09
2016-06-16T01:54:19.965Z,69.18
2016-06-16T01:55:19.968Z,68.99
2016-06-16T01:56:19.957Z,69.12
2016-06-16T01:57:19.756Z,68.99
2016-06-16T01:58:19.759Z,69.28
2016-06-16T01:59:19.762Z,69.09
2016-06-16T02:00:19.547Z,69.09
2016-06-16T02:01:19.956Z,69.09
2016-06-16T02:02:19.538Z,69.09
2016-06-16T02:03:19.946Z,69.09
2016-06-16T02:04:19.747Z,68.99
2016-06-16T02:05:19.530Z,69.18
2016-06-16T02:06:19.941Z,69.18
2016-06-16T02:07:19.536Z,69.28
2016-06-16T02:08:19.947Z,69.09
2016-06-16T02:09:19.731Z,69.18
2016-06-16T02:10:19.734Z,69.28
2016-06-16T02:11:19.737Z,69.18
2016-06-16T02:12:19.740Z,69.18
2016-06-16T02:13:19.743Z,69.09
2016-06-16T02:14:19.715Z,69.09
2016-06-16T02:15:19.733Z,68.99
2016-06-16T02:16:19.940Z,69.09
2016-06-16T02:17:19.739Z,69.18
2016-06-16T02:18:19.727Z,69.18
2016-06-16T02:19:19.528Z,69.28
2016-06-16T02:20:19.718Z,69.28
2016-06-16T02:21:19.923Z,69.18
2016-06-16T02:22:19.927Z,69.18
2016-06-16T02:23:19.508Z,69.18
2016-06-16T02:24:19.918Z,69.18
2016-06-16T02:25:19.717Z,68.7
2016-06-16T02:26:19.720Z,68.8
2016-06-16T02:27:19.708Z,69.18
2016-06-16T02:28:19.915Z,69.47
2016-06-16T02:29:19.714Z,69.38
2016-06-16T02:30:19.701Z,69.28
2016-06-16T02:31:19.907Z,68.99
2016-06-16T02:32:19.911Z,68.99
2016-06-16T02:33:19.898Z,68.99
2016-06-16T02:34:19.495Z,69.18
2016-06-16T02:35:19.686Z,68.8
2016-06-16T02:36:19.689Z,69.18
2016-06-16T02:37:19.489Z,69.28
2016-06-16T02:38:19.914Z,69.09
2016-06-16T02:39:19.682Z,69.47
2016-06-16T02:40:19.685Z,69.28
2016-06-16T02:41:20.813Z,69.47
2016-06-16T02:42:19.707Z,69.28
2016-06-16T02:43:19.882Z,69.28
2016-06-16T02:44:19.683Z,69.38
2016-06-16T02:45:19.483Z,69.38
2016-06-16T02:46:19.875Z,69.38
2016-06-16T02:47:19.675Z,69.47
2016-06-16T02:48:19.679Z,69.47
2016-06-16T02:49:19.682Z,69.18
2016-06-16T02:50:19.684Z,69.18
2016-06-16T02:51:19.469Z,69.18
2016-06-16T02:52:19.675Z,69.09
2016-06-16T02:53:19.882Z,69.18
2016-06-16T02:54:19.666Z,69.28
2016-06-16T02:55:19.670Z,69.47
2016-06-16T02:56:19.469Z,69.06
2016-06-16T02:57:19.862Z,69.38
2016-06-16T02:58:19.663Z,69.57
2016-06-16T02:59:19.463Z,69.47
2016-06-16T03:00:19.669Z,69.47
2016-06-16T03:01:19.672Z,69.38
2016-06-16T03:02:19.456Z,69.44
2016-06-16T03:03:19.647Z,69.47
2016-06-16T03:04:19.853Z,69.47
2016-06-16T03:05:19.856Z,69.47
2016-06-16T03:06:19.656Z,69.47
2016-06-16T03:07:19.660Z,69.47
2016-06-16T03:08:19.443Z,69.38
2016-06-16T03:09:19.431Z,69.47
2016-06-16T03:10:19.637Z,69.44
2016-06-16T03:11:19.797Z,69.38
2016-06-16T03:12:19.644Z,69.18
2016-06-16T03:13:19.443Z,69.53
2016-06-16T03:14:19.633Z,69.44
2016-06-16T03:15:19.840Z,69.44
2016-06-16T03:16:19.640Z,69.44
2016-06-16T03:17:19.831Z,69.24
2016-06-16T03:18:19.849Z,69.47
2016-06-16T03:19:19.633Z,69.24
2016-06-16T03:20:19.621Z,69.24
2016-06-16T03:21:19.827Z,69.38
2016-06-16T03:22:19.830Z,69.34
2016-06-16T03:23:19.833Z,69.34
2016-06-16T03:24:19.415Z,69.34
2016-06-16T03:25:19.620Z,69.34
2016-06-16T03:26:19.983Z,69.44
2016-06-16T03:27:19.612Z,69.44
2016-06-16T03:28:19.615Z,69.34
2016-06-16T03:29:19.601Z,69.53
2016-06-16T03:30:19.605Z,69.53
2016-06-16T03:31:19.405Z,69.63
2016-06-16T03:32:19.611Z,69.63
2016-06-16T03:33:19.614Z,69.82
2016-06-16T03:34:19.804Z,69.82
2016-06-16T03:35:19.604Z,69.92
2016-06-16T03:36:19.390Z,69.82
2016-06-16T03:37:19.657Z,69.82
2016-06-16T03:38:19.395Z,69.82
2016-06-16T03:39:19.819Z,69.82
2016-06-16T03:40:19.604Z,69.82
2016-06-16T03:41:19.795Z,69.82
2016-06-16T03:42:19.578Z,69.82
2016-06-16T03:43:19.394Z,69.82
2016-06-16T03:44:19.382Z,69.73
2016-06-16T03:45:19.431Z,69.82
2016-06-16T03:46:19.576Z,69.63
2016-06-16T03:47:19.798Z,69.82
2016-06-16T03:48:19.582Z,69.73
2016-06-16T03:49:19.788Z,69.73
2016-06-16T03:50:19.573Z,69.73
2016-06-16T03:51:19.778Z,69.82
2016-06-16T03:52:19.781Z,69.92
2016-06-16T03:53:19.566Z,69.82
2016-06-16T03:54:19.366Z,69.63
2016-06-16T03:55:19.572Z,69.63
2016-06-16T03:56:19.919Z,69.82
2016-06-16T03:57:19.407Z,69.73
2016-06-16T03:58:19.753Z,69.73
2016-06-16T03:59:19.350Z,69.82
2016-06-16T04:00:19.556Z,69.82
2016-06-16T04:01:19.762Z,69.82
2016-06-16T04:02:19.547Z,69.82
2016-06-16T04:03:19.551Z,69.82
2016-06-16T04:04:19.553Z,69.82
2016-06-16T04:05:19.743Z,69.73
2016-06-16T04:06:19.543Z,69.73
2016-06-16T04:07:19.563Z,69.73
2016-06-16T04:08:19.752Z,69.73
2016-06-16T04:09:19.740Z,69.82
2016-06-16T04:10:19.525Z,69.82
2016-06-16T04:11:20.325Z,69.63
2016-06-16T04:12:19.718Z,69.82
2016-06-16T04:13:19.533Z,69.63
2016-06-16T04:14:19.318Z,69.82
2016-06-16T04:15:19.727Z,69.82
2016-06-16T04:16:19.749Z,69.73
2016-06-16T04:17:19.574Z,69.44
2016-06-16T04:18:19.819Z,69.53
2016-06-16T04:19:19.659Z,69.63
2016-06-16T04:20:19.905Z,69.44
2016-06-16T04:21:19.718Z,69.34
2016-06-16T04:22:19.735Z,69.44
2016-06-16T04:23:19.752Z,69.44
2016-06-16T04:24:19.754Z,69.44
2016-06-16T04:25:19.756Z,69.34
2016-06-16T04:26:19.722Z,69.44
2016-06-16T04:27:20.245Z,69.44
2016-06-16T04:28:19.785Z,69.53
2016-06-16T04:29:19.777Z,69.53
2016-06-16T04:30:20.004Z,69.34
2016-06-16T04:31:19.995Z,69.53
2016-06-16T04:32:20.016Z,69.44
2016-06-16T04:33:19.990Z,69.34
2016-06-16T04:34:19.588Z,69.24
2016-06-16T04:35:19.780Z,69.24
2016-06-16T04:36:19.785Z,69.34
2016-06-16T04:37:19.789Z,69.44
2016-06-16T04:38:19.996Z,69.24
2016-06-16T04:39:20.000Z,69.24
2016-06-16T04:40:19.832Z,69.44
2016-06-16T04:41:19.991Z,69.44
2016-06-16T04:42:19.995Z,69.44
2016-06-16T04:43:19.780Z,69.44
2016-06-16T04:44:19.784Z,69.34
2016-06-16T04:45:19.771Z,69.44
2016-06-16T04:46:19.571Z,69.44
2016-06-16T04:47:19.574Z,69.44
2016-06-16T04:48:19.984Z,69.24
2016-06-16T04:49:19.986Z,69.44
2016-06-16T04:50:19.771Z,69.44
2016-06-16T04:51:19.556Z,69.31
2016-06-16T04:52:19.762Z,69.4
2016-06-16T04:53:19.765Z,69.34
2016-06-16T04:54:19.565Z,69.4
2016-06-16T04:55:19.552Z,69.34
2016-06-16T04:56:19.961Z,69.34
2016-06-16T04:57:19.825Z,69.4
2016-06-16T04:58:19.952Z,69.44
2016-06-16T04:59:19.548Z,69.34
2016-06-16T05:00:19.942Z,69.44
2016-06-16T05:01:19.945Z,69.34
2016-06-16T05:02:19.542Z,69.4
2016-06-16T05:03:19.749Z,69.24
2016-06-16T05:04:19.752Z,69.4
2016-06-16T05:05:19.738Z,69.21
2016-06-16T05:06:19.742Z,69.53
2016-06-16T05:07:19.948Z,69.63
2016-06-16T05:08:19.733Z,69.34
2016-06-16T05:09:19.720Z,69.44
2016-06-16T05:10:19.739Z,69.34
2016-06-16T05:11:19.726Z,69.44
2016-06-16T05:12:19.574Z,69.15
2016-06-16T05:13:19.717Z,69.15
2016-06-16T05:14:19.517Z,69.34
2016-06-16T05:15:19.520Z,69.24
2016-06-16T05:16:19.913Z,69.44
2016-06-16T05:17:19.714Z,69.24
2016-06-16T05:18:19.701Z,69.21
2016-06-16T05:19:19.907Z,69.24
2016-06-16T05:20:19.707Z,69.34
2016-06-16T05:21:19.913Z,69.24
2016-06-16T05:22:19.901Z,69.21
2016-06-16T05:23:19.904Z,69.24
2016-06-16T05:24:19.907Z,69.34
2016-06-16T05:25:19.706Z,69.63
2016-06-16T05:26:19.695Z,69.24
2016-06-16T05:27:19.901Z,69.44
2016-06-16T05:28:19.685Z,69.24
2016-06-16T05:29:19.687Z,68.96
2016-06-16T05:30:19.893Z,68.96
2016-06-16T05:31:19.897Z,69.24
2016-06-16T05:32:19.682Z,68.67
2016-06-16T05:33:19.685Z,69.21
2016-06-16T05:34:19.672Z,68.96
2016-06-16T05:35:19.675Z,69.12
2016-06-16T05:36:19.678Z,69.15
2016-06-16T05:37:19.868Z,69.24
2016-06-16T05:38:19.668Z,68.96
2016-06-16T05:39:19.859Z,69.12
2016-06-16T05:40:19.659Z,69.06
2016-06-16T05:41:19.865Z,69.15
2016-06-16T05:42:20.119Z,69.24
2016-06-16T05:43:19.669Z,69.21
2016-06-16T05:44:19.656Z,69.06
2016-06-16T05:45:19.643Z,69.06
2016-06-16T05:46:19.443Z,68.92
2016-06-16T05:47:19.648Z,69.12
2016-06-16T05:48:19.434Z,68.96
2016-06-16T05:49:19.859Z,69.24
2016-06-16T05:50:19.846Z,69.34
2016-06-16T05:51:19.443Z,69.34
2016-06-16T05:52:19.430Z,69.15
2016-06-16T05:53:19.839Z,69.15
2016-06-16T05:54:19.640Z,69.06
2016-06-16T05:55:19.674Z,69.06
2016-06-16T05:56:19.834Z,69.12
2016-06-16T05:57:19.430Z,69.24
2016-06-16T05:58:19.621Z,68.96
2016-06-16T05:59:19.420Z,68.96
2016-06-16T06:00:19.829Z,68.76
2016-06-16T06:01:19.817Z,68.76
2016-06-16T06:02:19.414Z,68.86
2016-06-16T06:03:19.620Z,68.73
2016-06-16T06:04:19.405Z,68.57
2016-06-16T06:05:19.611Z,68.67
2016-06-16T06:06:19.817Z,68.67
2016-06-16T06:07:19.602Z,68.48
2016-06-16T06:08:19.605Z,68.67
2016-06-16T06:09:19.811Z,68.67
2016-06-16T06:10:19.799Z,68.57
2016-06-16T06:11:19.802Z,68.48
2016-06-16T06:12:19.804Z,68.67
2016-06-16T06:13:19.400Z,68.67
2016-06-16T06:14:19.795Z,68.67
2016-06-16T06:15:19.392Z,68.76
2016-06-16T06:16:19.582Z,68.86
2016-06-16T06:17:19.398Z,68.96
2016-06-16T06:18:19.588Z,68.86
2016-06-16T06:19:19.389Z,68.86
2016-06-16T06:20:19.375Z,68.86
2016-06-16T06:21:19.426Z,68.76
2016-06-16T06:22:19.381Z,68.57
2016-06-16T06:23:19.589Z,68.44
2016-06-16T06:24:19.372Z,68.57
2016-06-16T06:25:19.563Z,68.67
2016-06-16T06:26:19.566Z,68.48
2016-06-16T06:27:19.897Z,68.29
2016-06-16T06:28:19.354Z,68.57
2016-06-16T06:29:19.560Z,68.48
2016-06-16T06:30:19.766Z,68.57
2016-06-16T06:31:19.347Z,68.76
2016-06-16T06:32:19.756Z,68.57
2016-06-16T06:33:19.759Z,68.48
2016-06-16T06:34:19.544Z,68.38
2016-06-16T06:35:19.751Z,68.48
2016-06-16T06:36:19.566Z,68.48
2016-06-16T06:37:19.537Z,68.48
2016-06-16T06:38:19.540Z,68.48
2016-06-16T06:39:19.747Z,68.38
2016-06-16T06:40:19.734Z,68.38
2016-06-16T06:41:19.534Z,68.48
2016-06-16T06:42:19.709Z,68.38
2016-06-16T06:43:19.525Z,68.48
2016-06-16T06:44:19.543Z,68.57
2016-06-16T06:45:19.593Z,68.57
2016-06-16T06:46:19.518Z,68.67
2016-06-16T06:47:19.318Z,68.48
2016-06-16T06:48:19.525Z,68.38
2016-06-16T06:49:19.575Z,68.48
2016-06-16T06:50:19.515Z,68.48
2016-06-16T06:51:19.314Z,68.48
2016-06-16T06:52:19.303Z,68.48
2016-06-16T06:53:19.305Z,68.48
2016-06-16T06:54:19.715Z,68.48
2016-06-16T06:55:19.718Z,68.38
2016-06-16T06:56:19.502Z,68.38
2016-06-16T06:57:19.708Z,68.48
2016-06-16T06:58:19.508Z,68.48
2016-06-16T06:59:19.699Z,68.51
2016-06-16T07:00:19.498Z,68.51
2016-06-16T07:01:19.501Z,68.48
2016-06-16T07:02:19.709Z,68.41
2016-06-16T07:03:19.508Z,68.51
2016-06-16T07:04:19.292Z,68.41
2016-06-16T07:05:19.545Z,68.51
2016-06-16T07:06:19.283Z,68.41
2016-06-16T07:07:19.270Z,68.51
2016-06-16T07:08:19.477Z,68.51
2016-06-16T07:09:19.683Z,68.51
2016-06-16T07:10:19.483Z,68.51
2016-06-16T07:11:19.470Z,68.51
2016-06-16T07:12:20.410Z,68.32
2016-06-16T07:13:19.679Z,68.7
2016-06-16T07:14:19.260Z,68.51
2016-06-16T07:15:19.467Z,68.51
2016-06-16T07:16:19.658Z,68.51
2016-06-16T07:17:19.301Z,68.03
2016-06-16T07:18:19.460Z,68.22
2016-06-16T07:19:19.261Z,67.93
2016-06-16T07:20:19.654Z,67.83
2016-06-16T07:21:19.454Z,68.03
2016-06-16T07:22:19.457Z,67.83
2016-06-16T07:23:19.648Z,67.97
2016-06-16T07:24:19.261Z,68.03
2016-06-16T07:25:19.450Z,68.26
2016-06-16T07:26:19.453Z,68.06
2016-06-16T07:27:19.253Z,68.16
2016-06-16T07:28:19.444Z,68.06
2016-06-16T07:29:19.245Z,68.26
2016-06-16T07:30:19.434Z,68.26
2016-06-16T07:31:19.640Z,68.35
2016-06-16T07:32:38.644Z,68.06
2016-06-16T07:33:19.663Z,67.68
2016-06-16T07:34:19.479Z,67.97
2016-06-16T07:48:36.802Z,67.97
2016-06-16T07:48:37.568Z,67.29
2016-06-16T07:48:51.911Z,67.29
2016-06-16T07:49:51.946Z,67
2016-06-16T07:50:51.527Z,66.91
2016-06-16T07:51:51.936Z,66.91
2016-06-16T07:52:52.095Z,67
2016-06-16T07:53:51.895Z,67.19
2016-06-16T07:54:52.087Z,67.33
2016-06-16T07:55:52.121Z,67.13
2016-06-16T07:56:51.874Z,67.1
2016-06-16T07:57:51.735Z,67.13
2016-06-16T07:58:51.879Z,67.33
2016-06-16T07:59:51.680Z,67.33
2016-06-16T08:00:51.870Z,67.13
2016-06-16T08:01:52.076Z,67.33
2016-06-16T08:02:51.673Z,66.75
2016-06-16T08:03:52.067Z,66.85
2016-06-16T08:04:52.070Z,66.85
2016-06-16T08:05:51.870Z,66.75
2016-06-16T08:06:52.077Z,66.75
2016-06-16T08:07:52.064Z,66.85
2016-06-16T08:08:51.864Z,66.75
2016-06-16T08:09:51.867Z,66.75
2016-06-16T08:10:51.901Z,66.94
2016-06-16T08:11:52.075Z,66.75
2016-06-16T08:12:51.860Z,66.55
2016-06-16T08:13:51.863Z,66.55
2016-06-16T08:14:52.053Z,66.75
2016-06-16T08:15:51.838Z,66.94
2016-06-16T08:16:51.857Z,66.94
2016-06-16T08:17:52.063Z,66.94
2016-06-16T08:18:51.848Z,66.75
2016-06-16T08:19:51.647Z,66.85
2016-06-16T08:20:52.041Z,66.46
2016-06-16T08:21:52.045Z,66.65
2016-06-16T08:22:51.625Z,66.55
2016-06-16T08:23:51.832Z,66.55
2016-06-16T08:24:51.678Z,66.46
2016-06-16T08:25:52.040Z,66.69
2016-06-16T08:26:51.840Z,66.27
2016-06-16T08:27:52.031Z,66.36
2016-06-16T08:28:51.831Z,66.36
2016-06-16T08:29:51.662Z,66.17
2016-06-16T08:30:51.603Z,66.3
2016-06-16T08:31:51.825Z,66.49
2016-06-16T08:32:52.015Z,66.59
2016-06-16T08:33:51.815Z,66.59
2016-06-16T08:34:51.460Z,66.59
2016-06-16T08:35:51.619Z,66.69
2016-06-16T08:36:52.013Z,66.78
2016-06-16T08:37:51.452Z,66.49
2016-06-16T08:38:52.019Z,66.39
2016-06-16T08:39:51.803Z,66.39
2016-06-16T08:40:52.025Z,66.78
2016-06-16T08:41:51.824Z,66.49
2016-06-16T08:42:51.813Z,66.01
2016-06-16T08:43:51.441Z,66.39
2016-06-16T08:44:51.803Z,66.49
2016-06-16T08:45:51.806Z,66.39
2016-06-16T08:46:51.997Z,66.3
2016-06-16T08:47:51.796Z,66.3
2016-06-16T08:48:16.581Z,66.3
2016-06-16T08:48:30.440Z,66.3
2016-06-16T08:49:30.037Z,66.3
2016-06-16T08:50:30.432Z,66.2
2016-06-16T08:51:30.230Z,66.3
2016-06-16T08:52:30.015Z,66.01
2016-06-16T08:53:30.222Z,66.3
2016-06-16T08:54:30.240Z,66.3
2016-06-16T08:55:30.228Z,66.49
2016-06-16T08:56:30.011Z,65.72
2016-06-16T08:57:30.218Z,66.2
2016-06-16T08:58:30.408Z,66.01
2016-06-16T08:59:30.068Z,66.2
2016-06-16T09:00:30.024Z,66.11
2016-06-16T09:01:30.261Z,66.2
2016-06-16T09:02:30.421Z,65.81
2016-06-16T09:03:30.205Z,65.81
2016-06-16T09:04:30.005Z,65.91
2016-06-16T09:05:30.415Z,65.63
2016-06-16T09:06:30.214Z,65.63
2016-06-16T09:07:30.420Z,65.81
2016-06-16T09:08:30.017Z,65.91
2016-06-16T09:09:30.411Z,65.63
2016-06-16T09:10:30.055Z,65.91
2016-06-16T09:11:30.402Z,65.81
2016-06-16T09:12:30.044Z,65.43
2016-06-16T09:13:30.189Z,65.53
2016-06-16T09:14:30.411Z,65.63
2016-06-16T09:15:29.992Z,65.72
2016-06-16T09:16:30.198Z,65.72
2016-06-16T09:17:30.420Z,65.72
2016-06-16T09:18:30.392Z,65.81
2016-06-16T09:19:30.192Z,66.01
2016-06-16T09:20:30.241Z,65.72
2016-06-16T09:21:30.402Z,66.01
2016-06-16T09:22:30.185Z,65.63
2016-06-16T09:23:30.188Z,65.81
2016-06-16T09:24:30.395Z,65.63
2016-06-16T09:25:30.382Z,65.72
2016-06-16T09:26:29.963Z,65.91
2016-06-16T09:27:30.216Z,65.91
2016-06-16T09:28:30.376Z,65.72
2016-06-16T09:29:29.972Z,65.81
2016-06-16T09:30:30.179Z,65.63
2016-06-16T09:31:30.228Z,65.81
2016-06-16T09:32:30.388Z,65.81
2016-06-16T09:33:30.782Z,65.91
2016-06-16T09:34:29.972Z,65.81
2016-06-16T09:35:30.382Z,65.33
2016-06-16T09:36:29.963Z,65.72
2016-06-16T09:37:30.169Z,65.33
2016-06-16T09:38:30.359Z,65.33
2016-06-16T09:39:30.160Z,65.63
2016-06-16T09:40:30.163Z,65.43
2016-06-16T09:41:30.009Z,65.63
2016-06-16T09:42:30.216Z,65.43
2016-06-16T09:43:30.000Z,65.63
2016-06-16T09:44:30.159Z,65.53
2016-06-16T09:45:30.240Z,65.63
2016-06-16T09:46:30.369Z,65.43
2016-06-16T09:47:30.152Z,65.56
2016-06-16T09:48:30.155Z,65.53
2016-06-16T09:49:30.159Z,65.81
2016-06-16T09:50:30.193Z,66.01
2016-06-16T09:51:30.150Z,65.66
2016-06-16T09:52:30.153Z,65.37
2016-06-16T09:53:30.156Z,66.01
2016-06-16T09:54:29.939Z,65.56
2016-06-16T09:55:30.146Z,65.47
2016-06-16T09:56:30.352Z,65.56
2016-06-16T09:57:30.183Z,65.66
2016-06-16T09:58:30.155Z,65.66
2016-06-16T09:59:29.986Z,65.56
2016-06-16T10:00:30.146Z,65.75
2016-06-16T10:01:30.149Z,65.56
2016-06-16T10:02:30.137Z,65.66
2016-06-16T10:03:29.984Z,65.56
2016-06-16T10:04:30.190Z,65.56
2016-06-16T10:05:29.974Z,65.66
2016-06-16T10:06:30.133Z,65.56
2016-06-16T10:07:30.182Z,65.56
2016-06-16T10:08:30.139Z,65.56
2016-06-16T10:09:30.330Z,65.66
2016-06-16T10:10:30.130Z,65.66
2016-06-16T10:11:30.133Z,65.75
2016-06-16T10:12:30.183Z,65.56
2016-06-16T10:13:30.326Z,65.56
2016-06-16T10:14:30.127Z,65.66
2016-06-16T10:15:29.927Z,65.47
2016-06-16T10:16:30.116Z,65.37
2016-06-16T10:17:30.324Z,65.47
2016-06-16T10:18:30.122Z,65.17
2016-06-16T10:19:29.970Z,65.56
2016-06-16T10:20:30.114Z,65.85
2016-06-16T10:21:30.320Z,65.95
2016-06-16T10:22:29.760Z,65.95
2016-06-16T10:23:29.920Z,66.14
2016-06-16T10:24:30.126Z,65.75
2016-06-16T10:25:30.113Z,65.56
2016-06-16T10:26:30.335Z,65.85
2016-06-16T10:27:30.323Z,65.66
2016-06-16T10:28:30.310Z,65.85
2016-06-16T10:29:30.111Z,65.85
2016-06-16T10:30:30.114Z,65.75
2016-06-16T10:31:30.117Z,65.56
2016-06-16T10:32:30.307Z,65.56
2016-06-16T10:33:29.904Z,65.37
2016-06-16T10:34:30.515Z,65.56
2016-06-16T10:35:29.910Z,65.27
2016-06-16T10:36:31.538Z,65.47
2016-06-16T10:37:31.213Z,65.66
2016-06-16T10:38:30.106Z,65.66
2016-06-16T10:39:30.953Z,65.75
2016-06-16T10:40:30.926Z,65.56
2016-06-16T10:41:30.100Z,65.66
2016-06-16T10:42:30.103Z,65.85
2016-06-16T10:43:30.309Z,65.85
2016-06-16T10:44:29.891Z,65.85
2016-06-16T10:45:30.363Z,65.66
2016-06-16T10:46:30.100Z,65.47
2016-06-16T10:47:29.947Z,65.75
2016-06-16T10:48:30.137Z,65.66
2016-06-16T10:49:30.297Z,65.47
2016-06-16T10:50:29.940Z,65.47
2016-06-16T10:51:30.099Z,65.75
2016-06-16T10:52:30.306Z,65.56
2016-06-16T10:53:29.934Z,65.56
2016-06-16T10:54:30.297Z,65.85
2016-06-16T10:55:30.158Z,65.85
2016-06-16T10:56:30.303Z,65.75
2016-06-16T10:57:30.087Z,65.75
2016-06-16T10:58:30.293Z,66.04
2016-06-16T10:59:30.092Z,65.85
2016-06-16T11:00:30.299Z,65.85
2016-06-16T11:01:30.084Z,65.75
2016-06-16T11:02:29.883Z,65.85
2016-06-16T11:03:30.091Z,65.69
2016-06-16T11:04:30.093Z,65.88
2016-06-16T11:07:46.758Z,66.08
2016-06-16T11:09:30.390Z,65.78
2016-06-16T11:09:46.702Z,65.98
2016-06-16T11:10:46.502Z,65.78
2016-06-16T11:11:46.896Z,65.88
2016-06-16T11:13:37.058Z,65.69
2016-06-16T11:13:51.402Z,65.88
2016-06-16T11:14:51.202Z,65.98
2016-06-16T11:15:51.033Z,65.78
2016-06-16T11:16:51.192Z,65.88
2016-06-16T11:17:50.992Z,65.88
2016-06-16T11:18:51.401Z,66.08
2016-06-16T11:19:51.201Z,65.78
2016-06-16T11:20:51.408Z,65.69
2016-06-16T11:21:51.193Z,65.78
2016-06-16T11:22:51.196Z,65.69
2016-06-16T11:23:51.183Z,65.5
2016-06-16T11:24:51.045Z,65.59
2016-06-16T11:25:51.392Z,65.98
2016-06-16T11:26:51.191Z,65.98
2016-06-16T11:27:51.195Z,65.69
2016-06-16T11:28:51.182Z,65.59
2016-06-16T11:29:50.842Z,65.59
2016-06-16T11:30:51.188Z,65.78
2016-06-16T11:31:51.176Z,65.69
2016-06-16T11:32:51.382Z,65.5
2016-06-16T11:33:51.027Z,65.69
2016-06-16T11:34:51.185Z,65.69
2016-06-16T11:35:51.376Z,65.78
2016-06-16T11:36:51.379Z,65.59
2016-06-16T11:37:51.178Z,65.88
2016-06-16T11:38:51.384Z,65.98
2016-06-16T11:39:50.982Z,65.98
2016-06-16T11:40:51.219Z,65.78
2016-06-16T11:41:50.816Z,66.36
2016-06-16T11:42:51.382Z,66.36
2016-06-16T11:43:51.181Z,66.66
2016-06-16T11:44:51.200Z,66.08
2016-06-16T11:45:51.234Z,65.78
2016-06-16T11:46:51.176Z,65.88
2016-06-16T11:47:51.381Z,65.69
2016-06-16T11:48:51.368Z,65.78
2016-06-16T11:49:50.824Z,65.78
2016-06-16T11:50:51.374Z,65.78
2016-06-16T11:51:51.378Z,65.78
2016-06-16T11:52:50.819Z,65.78
2016-06-16T11:53:50.822Z,65.98
2016-06-16T11:54:51.169Z,66.36
2016-06-16T11:55:50.968Z,65.98
2016-06-16T11:56:51.362Z,66.36
2016-06-16T11:57:51.162Z,66.27
2016-06-16T11:58:51.369Z,66.66
2016-06-16T11:59:51.185Z,66.66
2016-06-16T12:00:51.171Z,66.3
2016-06-16T12:01:51.159Z,66.27
2016-06-16T12:02:51.162Z,66.69
2016-06-16T12:03:51.367Z,66.75
2016-06-16T12:04:51.168Z,66.08
2016-06-16T12:05:51.359Z,66.08
2016-06-16T12:06:51.362Z,66.66
2016-06-16T12:07:50.959Z,66.56
2016-06-16T12:08:50.962Z,66.46
2016-06-16T12:09:51.152Z,66.46
2016-06-16T12:10:51.358Z,66.27
2016-06-16T12:11:50.955Z,66.08
2016-06-16T12:12:51.364Z,65.98
2016-06-16T12:13:50.945Z,66.08
2016-06-16T12:14:51.152Z,66.46
2016-06-16T12:15:51.155Z,66.66
2016-06-16T12:16:51.204Z,65.98
2016-06-16T12:17:51.208Z,66.56
2016-06-16T12:18:51.180Z,66.75
2016-06-16T12:19:51.167Z,66.66
2016-06-16T12:20:50.858Z,66.66
2016-06-16T12:21:51.158Z,66.66
2016-06-16T12:22:50.942Z,66.66
2016-06-16T12:23:51.351Z,66.75
2016-06-16T12:24:51.168Z,66.36
2016-06-16T12:25:51.373Z,66.56
2016-06-16T12:26:51.157Z,66.66
2016-06-16T12:27:51.348Z,66.66
2016-06-16T12:28:51.149Z,66.46
2016-06-16T12:29:50.948Z,66.56
2016-06-16T12:30:51.139Z,66.11
2016-06-16T12:31:51.345Z,66.17
2016-06-16T12:32:51.145Z,66.3
2016-06-16T12:33:51.148Z,66.2
2016-06-16T12:34:51.151Z,66.4
2016-06-16T12:35:51.357Z,66.3
2016-06-16T12:36:51.141Z,66.2
2016-06-16T12:37:51.348Z,66.3
2016-06-16T12:38:51.148Z,66.2
2016-06-16T12:39:51.135Z,66.3
2016-06-16T12:40:51.342Z,66.2
2016-06-16T12:41:51.141Z,66.3
2016-06-16T12:42:51.347Z,66.11
2016-06-16T12:43:51.148Z,66.4
2016-06-16T12:44:51.353Z,66.4
2016-06-16T12:45:50.935Z,65.91
2016-06-16T12:46:50.985Z,66.49
2016-06-16T12:47:50.972Z,66.11
2016-06-16T12:48:51.131Z,66.69
2016-06-16T12:49:51.134Z,66.11
2016-06-16T12:50:51.153Z,66.4
2016-06-16T12:51:51.141Z,66.49
2016-06-16T12:52:51.332Z,66.4
2016-06-16T12:58:52.850Z,66.4
2016-06-16T12:59:53.212Z,66.49
2016-06-16T13:00:53.012Z,66.49
2016-06-16T13:01:53.000Z,66.3
2016-06-16T13:02:53.066Z,66.2
2016-06-16T13:03:53.210Z,66.3
2016-06-16T13:04:52.994Z,66.2
2016-06-16T13:05:53.199Z,66.2
2016-06-16T13:06:53.203Z,66.4
2016-06-16T13:07:53.003Z,66.3
2016-06-16T13:08:53.209Z,66.78
2016-06-16T13:09:53.196Z,66.88
2016-06-16T13:10:53.200Z,66.59
2016-06-16T13:11:53.000Z,66.69